Catàleg de serveis del Meteocat
Campanya meteocatpedra

Dades de l'estació automàtica la Granada

?
?
Resum diari 21:30 TU
Dades diàries de l'estació meteorològica
Temperatura mitjana 8.5 °C
Temperatura màxima 14.6 °C 13:58 TU
Temperatura mínima 5.5 °C 21:45 TU
Humitat relativa mitjana 83%
Precipitació acumulada 2.1 mm
Ratxa màxima del vent (2 m) 14.8 km/h - 16º 5:10 TU
Irradiació solar global 6.0 MJ/m2

El tram horari està expressat en Temps Universal (TU). Cal sumar una hora en horari d'hivern i dues en horari d'estiu per passar a l'hora oficial.

la Granada

Metadades estació meteorol´gica
Municipi La Granada
Comarca Alt Penedès
Altitud 240 m
Data alta 25.12.1999
Estat actual Operativa
Dades de període
Període
TU
TM
°C
TX
°C
TN
°C
HRM
%
PPT
mm
VVM (2 m)
km/h
DVM (2 m)
graus
VVX (2 m)
km/h
RS
W/m2
00:00 - 00:30 7.6 8.4 7.0 76 0.0 1.4 102 4.0 0
00:30 - 01:00 7.1 7.5 6.6 78 0.0 2.2 281 5.0 0
01:00 - 01:30 6.4 7.1 6.0 80 0.0 1.8 17 4.3 0
01:30 - 02:00 6.7 7.0 6.2 80 0.0 3.2 14 6.8 0
02:00 - 02:30 6.3 6.5 6.1 82 0.0 1.4 15 5.4 0
02:30 - 03:00 6.6 6.9 5.9 81 0.0 2.2 38 4.7 0
03:00 - 03:30 7.3 7.7 6.6 80 0.0 6.1 28 9.7 0
03:30 - 04:00 6.4 7.3 6.1 83 0.0 7.2 29 11.2 0
04:00 - 04:30 6.3 6.5 6.1 84 0.0 6.1 17 11.5 0
04:30 - 05:00 6.6 6.9 6.4 83 0.0 7.9 21 14.0 0
05:00 - 05:30 7.0 7.1 6.8 82 0.0 9.0 23 14.8 0
05:30 - 06:00 7.1 7.2 7.1 82 0.0 8.3 20 13.7 0
06:00 - 06:30 7.2 7.3 7.1 82 0.0 7.2 14 11.5 5
06:30 - 07:00 7.1 7.3 7.0 84 0.0 5.8 360 10.1 6
07:00 - 07:30 7.4 7.5 7.2 84 0.2 5.0 357 10.8 13
07:30 - 08:00 6.8 7.2 6.6 89 0.3 5.4 23 11.2 21
08:00 - 08:30 6.6 6.6 6.6 92 0.5 4.3 16 8.6 24
08:30 - 09:00 6.6 6.8 6.5 94 1.0 6.1 28 11.9 43
09:00 - 09:30 6.9 7.0 6.8 95 0.0 3.6 40 9.0 44
09:30 - 10:00 7.3 7.5 7.1 94 0.1 5.0 18 10.8 80
10:00 - 10:30 7.6 7.8 7.5 94 0.0 6.1 47 12.2 72
10:30 - 11:00 7.9 8.0 7.9 93 0.0 4.7 36 11.2 58
11:00 - 11:30 8.2 8.4 8.0 91 0.0 5.0 34 11.5 84
11:30 - 12:00 8.9 9.5 8.5 89 0.0 5.4 15 9.7 220
12:00 - 12:30 10.6 11.4 9.6 83 0.0 3.2 356 11.5 402
12:30 - 13:00 12.3 13.6 11.3 76 0.0 1.4 300 5.0 417
13:00 - 13:30 13.7 14.4 13.4 69 0.0 2.9 211 9.0 465
13:30 - 14:00 14.2 14.6 13.6 66 0.0 2.9 218 8.3 405
14:00 - 14:30 14.2 14.4 14.0 65 0.0 4.0 194 9.4 349
14:30 - 15:00 13.8 14.3 13.5 67 0.0 5.4 223 13.0 248
15:00 - 15:30 13.6 13.9 13.3 69 0.0 6.5 220 11.9 187
15:30 - 16:00 13.0 13.5 12.5 70 0.0 6.1 203 11.9 108
16:00 - 16:30 11.8 12.5 10.9 74 0.0 4.3 198 8.6 36
16:30 - 17:00 10.0 10.8 9.5 82 0.0 1.8 128 5.8 5
17:00 - 17:30 8.9 9.5 8.4 89 0.0 1.1 181 3.6 2
17:30 - 18:00 8.1 8.6 7.5 87 0.0 2.5 175 5.0 2
18:00 - 18:30 8.1 8.8 7.8 87 0.0 4.0 195 7.2 3
18:30 - 19:00 8.2 8.7 7.9 87 0.0 4.0 163 7.2 3
19:00 - 19:30 8.5 9.0 7.9 87 0.0 2.5 142 9.0 2
19:30 - 20:00 8.2 8.5 6.8 88 0.0 2.2 272 4.0 3
20:00 - 20:30 6.6 6.8 6.2 93 0.0 2.2 41 6.1 3
20:30 - 21:00 7.5 8.2 6.7 84 0.0 3.2 20 6.8 3
21:00 - 21:30 7.6 8.1 7.3 79 0.0 2.2 309 7.2 3
21:30 - 22:00 6.1 7.4 5.5 86 0.0 3.2 76 7.9 3

Les dades en taronja només han passat un control de qualitat automàtic. Resta pendent la seva validació definitiva.